WAPP/AMQ METAR and TAF weather

Enter ICAO airport designator
Station Type Date Time Source
WAPP METAR 2021/03/01 03:30 UTC NOAA

WAPP 010330Z 35008KT 270V030 9999 SCT017 32/23 Q1009 NOSIG


Station Type Date Time Source
WAPP Decoded METAR 2021/03/01 03:30 UTC NOAA

Ambon / Pattimura, Indonesia (WAPP) 03-42S 128-05E 12M
Feb 28, 2021 - 10:30 PM EST / 2021.03.01 0330 UTC
Wind: from the N (350 degrees) at 9 MPH (8 KT) (direction variable):0
Visibility: greater than 7 mile(s):0
Sky conditions: partly cloudy
Temperature: 89 F (32 C)
Heat index: 96.8 F (36.0 C):1
Dew Point: 73 F (23 C)
Relative Humidity: 59%
Pressure (altimeter): 29.80 in. Hg (1009 hPa)
ob: WAPP 010330Z 35008KT 270V030 9999 SCT017 32/23 Q1009 NOSIG
cycle: 3

Station Type Date Time Source
WAPP TAF 2015/06/30 00:57 UTC NOAA

TAF WAPP 302300Z 0100/0124 34006KT 9999 SCT018
TEMPO 0101/0104 7000 -RA BKN017
BECMG 0105/0107 21006KT
BECMG 0109/0111 32006KT

Example: see airport list